sensor_id;sensor_type;location;lat;lon;timestamp;P1;durP1;ratioP1;P2;durP2;ratioP2
47429;SDS011;33181;49.246;7.372;2023-01-04T00:01:56;16.03;;;10.60;;
47429;SDS011;33181;49.246;7.372;2023-01-04T00:04:21;15.37;;;10.00;;
47429;SDS011;33181;49.246;7.372;2023-01-04T00:06:47;17.13;;;10.80;;
47429;SDS011;33181;49.246;7.372;2023-01-04T00:09:13;16.17;;;10.37;;
47429;SDS011;33181;49.246;7.372;2023-01-04T00:11:38;18.20;;;10.53;;
47429;SDS011;33181;49.246;7.372;2023-01-04T00:14:04;16.40;;;9.67;;
47429;SDS011;33181;49.246;7.372;2023-01-04T00:16:30;19.57;;;9.90;;
47429;SDS011;33181;49.246;7.372;2023-01-04T00:18:56;14.77;;;10.27;;
47429;SDS011;33181;49.246;7.372;2023-01-04T00:21:23;14.60;;;9.43;;
47429;SDS011;33181;49.246;7.372;2023-01-04T00:23:53;18.63;;;10.00;;
47429;SDS011;33181;49.246;7.372;2023-01-04T00:26:26;14.67;;;8.73;;
47429;SDS011;33181;49.246;7.372;2023-01-04T00:29:00;14.50;;;9.00;;
47429;SDS011;33181;49.246;7.372;2023-01-04T00:31:31;32.93;;;10.27;;
47429;SDS011;33181;49.246;7.372;2023-01-04T00:33:59;12.90;;;8.13;;
47429;SDS011;33181;49.246;7.372;2023-01-04T00:36:26;13.13;;;8.63;;
47429;SDS011;33181;49.246;7.372;2023-01-04T00:38:52;14.10;;;8.90;;
47429;SDS011;33181;49.246;7.372;2023-01-04T00:41:38;12.83;;;8.13;;
47429;SDS011;33181;49.246;7.372;2023-01-04T00:44:10;12.57;;;7.83;;
47429;SDS011;33181;49.246;7.372;2023-01-04T00:46:36;15.33;;;8.60;;
47429;SDS011;33181;49.246;7.372;2023-01-04T00:49:03;11.43;;;8.00;;
47429;SDS011;33181;49.246;7.372;2023-01-04T00:51:30;17.80;;;8.30;;
47429;SDS011;33181;49.246;7.372;2023-01-04T00:53:59;11.27;;;7.53;;
47429;SDS011;33181;49.246;7.372;2023-01-04T00:56:28;17.40;;;8.13;;
47429;SDS011;33181;49.246;7.372;2023-01-04T00:58:55;13.50;;;7.80;;
47429;SDS011;33181;49.246;7.372;2023-01-04T01:01:23;11.97;;;8.03;;
47429;SDS011;33181;49.246;7.372;2023-01-04T01:03:57;11.80;;;7.80;;
47429;SDS011;33181;49.246;7.372;2023-01-04T01:06:25;12.83;;;7.73;;
47429;SDS011;33181;49.246;7.372;2023-01-04T01:08:53;11.50;;;8.10;;
47429;SDS011;33181;49.246;7.372;2023-01-04T01:11:19;11.40;;;7.43;;
47429;SDS011;33181;49.246;7.372;2023-01-04T01:13:45;12.40;;;7.50;;
47429;SDS011;33181;49.246;7.372;2023-01-04T01:16:12;14.40;;;8.17;;
47429;SDS011;33181;49.246;7.372;2023-01-04T01:18:41;13.03;;;7.30;;
47429;SDS011;33181;49.246;7.372;2023-01-04T01:21:09;12.27;;;8.00;;
47429;SDS011;33181;49.246;7.372;2023-01-04T01:23:38;10.90;;;7.50;;
47429;SDS011;33181;49.246;7.372;2023-01-04T01:26:05;13.00;;;7.73;;
47429;SDS011;33181;49.246;7.372;2023-01-04T01:28:32;11.60;;;7.00;;
47429;SDS011;33181;49.246;7.372;2023-01-04T01:31:04;13.67;;;7.47;;
47429;SDS011;33181;49.246;7.372;2023-01-04T01:33:36;11.20;;;7.60;;
47429;SDS011;33181;49.246;7.372;2023-01-04T01:36:03;12.80;;;7.47;;
47429;SDS011;33181;49.246;7.372;2023-01-04T01:38:31;12.77;;;7.30;;
47429;SDS011;33181;49.246;7.372;2023-01-04T01:40:56;11.30;;;7.33;;
47429;SDS011;33181;49.246;7.372;2023-01-04T01:43:43;12.83;;;7.47;;
47429;SDS011;33181;49.246;7.372;2023-01-04T01:46:28;11.77;;;7.50;;
47429;SDS011;33181;49.246;7.372;2023-01-04T01:49:40;10.43;;;7.30;;
47429;SDS011;33181;49.246;7.372;2023-01-04T01:52:03;10.13;;;6.60;;
47429;SDS011;33181;49.246;7.372;2023-01-04T01:54:33;15.20;;;7.80;;
47429;SDS011;33181;49.246;7.372;2023-01-04T01:57:05;11.07;;;6.87;;
47429;SDS011;33181;49.246;7.372;2023-01-04T01:59:34;11.57;;;7.17;;
47429;SDS011;33181;49.246;7.372;2023-01-04T02:02:04;12.27;;;7.80;;
47429;SDS011;33181;49.246;7.372;2023-01-04T02:04:30;11.80;;;7.20;;
47429;SDS011;33181;49.246;7.372;2023-01-04T02:06:56;11.97;;;7.83;;
47429;SDS011;33181;49.246;7.372;2023-01-04T02:09:23;10.30;;;7.10;;
47429;SDS011;33181;49.246;7.372;2023-01-04T02:11:49;11.63;;;6.93;;
47429;SDS011;33181;49.246;7.372;2023-01-04T02:14:15;13.80;;;7.17;;
47429;SDS011;33181;49.246;7.372;2023-01-04T02:19:55;9.97;;;6.53;;
47429;SDS011;33181;49.246;7.372;2023-01-04T02:31:53;12.00;;;7.57;;
47429;SDS011;33181;49.246;7.372;2023-01-04T02:37:39;13.07;;;7.00;;
47429;SDS011;33181;49.246;7.372;2023-01-04T02:40:51;11.60;;;8.07;;
47429;SDS011;33181;49.246;7.372;2023-01-04T02:47:09;11.53;;;7.73;;
47429;SDS011;33181;49.246;7.372;2023-01-04T02:49:39;14.00;;;8.23;;
47429;SDS011;33181;49.246;7.372;2023-01-04T02:52:24;14.07;;;8.23;;
47429;SDS011;33181;49.246;7.372;2023-01-04T02:54:51;14.17;;;8.00;;
47429;SDS011;33181;49.246;7.372;2023-01-04T03:06:17;13.60;;;7.43;;
47429;SDS011;33181;49.246;7.372;2023-01-04T03:09:02;12.60;;;7.33;;
47429;SDS011;33181;49.246;7.372;2023-01-04T03:11:39;11.07;;;7.20;;
47429;SDS011;33181;49.246;7.372;2023-01-04T03:14:32;13.63;;;7.83;;
47429;SDS011;33181;49.246;7.372;2023-01-04T03:17:13;14.10;;;8.30;;
47429;SDS011;33181;49.246;7.372;2023-01-04T03:19:42;11.43;;;7.53;;
47429;SDS011;33181;49.246;7.372;2023-01-04T03:25:26;12.20;;;7.47;;
47429;SDS011;33181;49.246;7.372;2023-01-04T03:28:27;11.13;;;7.40;;
47429;SDS011;33181;49.246;7.372;2023-01-04T03:31:19;11.70;;;7.60;;
47429;SDS011;33181;49.246;7.372;2023-01-04T03:34:12;13.20;;;7.90;;
47429;SDS011;33181;49.246;7.372;2023-01-04T03:39:38;11.97;;;7.97;;
47429;SDS011;33181;49.246;7.372;2023-01-04T03:42:52;13.90;;;7.87;;
47429;SDS011;33181;49.246;7.372;2023-01-04T03:45:56;12.60;;;7.63;;
47429;SDS011;33181;49.246;7.372;2023-01-04T03:49:13;12.90;;;7.10;;
47429;SDS011;33181;49.246;7.372;2023-01-04T03:52:04;13.10;;;7.50;;
47429;SDS011;33181;49.246;7.372;2023-01-04T03:54:36;11.00;;;7.27;;
47429;SDS011;33181;49.246;7.372;2023-01-04T03:57:06;13.70;;;7.20;;
47429;SDS011;33181;49.246;7.372;2023-01-04T03:59:41;11.90;;;7.13;;
47429;SDS011;33181;49.246;7.372;2023-01-04T04:02:13;14.33;;;6.93;;
47429;SDS011;33181;49.246;7.372;2023-01-04T04:04:43;13.00;;;7.07;;
47429;SDS011;33181;49.246;7.372;2023-01-04T04:07:28;12.67;;;7.33;;
47429;SDS011;33181;49.246;7.372;2023-01-04T04:10:13;11.63;;;6.90;;
47429;SDS011;33181;49.246;7.372;2023-01-04T04:12:39;13.00;;;6.90;;
47429;SDS011;33181;49.246;7.372;2023-01-04T04:15:04;10.83;;;6.37;;
47429;SDS011;33181;49.246;7.372;2023-01-04T04:17:31;10.27;;;6.90;;
47429;SDS011;33181;49.246;7.372;2023-01-04T04:19:56;12.00;;;6.87;;
47429;SDS011;33181;49.246;7.372;2023-01-04T04:22:22;12.97;;;6.60;;
47429;SDS011;33181;49.246;7.372;2023-01-04T04:24:48;10.10;;;6.50;;
47429;SDS011;33181;49.246;7.372;2023-01-04T04:27:13;10.33;;;6.30;;
47429;SDS011;33181;49.246;7.372;2023-01-04T04:29:39;10.37;;;6.43;;
47429;SDS011;33181;49.246;7.372;2023-01-04T04:32:05;10.57;;;6.13;;
47429;SDS011;33181;49.246;7.372;2023-01-04T04:34:30;10.73;;;6.50;;
47429;SDS011;33181;49.246;7.372;2023-01-04T04:36:56;8.40;;;5.87;;
47429;SDS011;33181;49.246;7.372;2023-01-04T04:39:22;10.40;;;6.30;;
47429;SDS011;33181;49.246;7.372;2023-01-04T04:41:47;10.90;;;6.27;;
47429;SDS011;33181;49.246;7.372;2023-01-04T04:44:17;7.60;;;5.50;;
47429;SDS011;33181;49.246;7.372;2023-01-04T04:46:46;9.83;;;5.87;;
47429;SDS011;33181;49.246;7.372;2023-01-04T04:49:13;9.80;;;5.90;;
47429;SDS011;33181;49.246;7.372;2023-01-04T04:51:40;9.17;;;6.00;;
47429;SDS011;33181;49.246;7.372;2023-01-04T04:54:08;10.30;;;5.73;;
47429;SDS011;33181;49.246;7.372;2023-01-04T04:56:38;12.57;;;6.27;;
47429;SDS011;33181;49.246;7.372;2023-01-04T04:59:04;15.63;;;6.47;;
47429;SDS011;33181;49.246;7.372;2023-01-04T05:01:32;9.87;;;6.13;;
47429;SDS011;33181;49.246;7.372;2023-01-04T05:03:58;8.63;;;5.60;;
47429;SDS011;33181;49.246;7.372;2023-01-04T05:06:24;12.20;;;6.60;;
47429;SDS011;33181;49.246;7.372;2023-01-04T05:08:50;11.23;;;5.90;;
47429;SDS011;33181;49.246;7.372;2023-01-04T05:11:16;11.07;;;5.83;;
47429;SDS011;33181;49.246;7.372;2023-01-04T05:14:02;8.80;;;5.80;;
47429;SDS011;33181;49.246;7.372;2023-01-04T05:16:28;9.83;;;5.90;;
47429;SDS011;33181;49.246;7.372;2023-01-04T05:18:53;14.20;;;6.70;;
47429;SDS011;33181;49.246;7.372;2023-01-04T05:21:19;9.67;;;5.90;;
47429;SDS011;33181;49.246;7.372;2023-01-04T05:23:45;7.57;;;5.20;;
47429;SDS011;33181;49.246;7.372;2023-01-04T05:26:10;8.93;;;5.73;;
47429;SDS011;33181;49.246;7.372;2023-01-04T05:28:36;12.37;;;6.20;;
47429;SDS011;33181;49.246;7.372;2023-01-04T05:31:02;9.50;;;5.50;;
47429;SDS011;33181;49.246;7.372;2023-01-04T05:33:28;9.43;;;6.00;;
47429;SDS011;33181;49.246;7.372;2023-01-04T05:35:56;12.20;;;5.90;;
47429;SDS011;33181;49.246;7.372;2023-01-04T05:38:24;10.83;;;5.17;;
47429;SDS011;33181;49.246;7.372;2023-01-04T05:40:50;13.00;;;5.53;;
47429;SDS011;33181;49.246;7.372;2023-01-04T05:43:18;8.80;;;5.00;;
47429;SDS011;33181;49.246;7.372;2023-01-04T05:45:52;9.83;;;5.33;;
47429;SDS011;33181;49.246;7.372;2023-01-04T05:48:20;11.50;;;6.10;;
47429;SDS011;33181;49.246;7.372;2023-01-04T05:50:47;9.17;;;5.83;;
47429;SDS011;33181;49.246;7.372;2023-01-04T05:53:14;10.30;;;5.33;;
47429;SDS011;33181;49.246;7.372;2023-01-04T05:55:42;10.17;;;5.67;;
47429;SDS011;33181;49.246;7.372;2023-01-04T05:58:09;8.97;;;5.40;;
47429;SDS011;33181;49.246;7.372;2023-01-04T06:00:34;10.93;;;5.60;;
47429;SDS011;33181;49.246;7.372;2023-01-04T06:03:00;10.13;;;5.00;;
47429;SDS011;33181;49.246;7.372;2023-01-04T06:05:26;10.20;;;4.83;;
47429;SDS011;33181;49.246;7.372;2023-01-04T06:07:52;11.20;;;5.23;;
47429;SDS011;33181;49.246;7.372;2023-01-04T06:10:17;7.73;;;5.23;;
47429;SDS011;33181;49.246;7.372;2023-01-04T06:12:44;10.20;;;4.53;;
47429;SDS011;33181;49.246;7.372;2023-01-04T06:15:11;8.07;;;4.83;;
47429;SDS011;33181;49.246;7.372;2023-01-04T06:17:37;8.47;;;5.50;;
47429;SDS011;33181;49.246;7.372;2023-01-04T06:20:04;9.23;;;5.27;;
47429;SDS011;33181;49.246;7.372;2023-01-04T06:22:33;10.77;;;5.00;;
47429;SDS011;33181;49.246;7.372;2023-01-04T06:25:00;10.20;;;4.70;;
47429;SDS011;33181;49.246;7.372;2023-01-04T06:27:25;9.30;;;4.80;;
47429;SDS011;33181;49.246;7.372;2023-01-04T06:29:51;8.60;;;5.27;;
47429;SDS011;33181;49.246;7.372;2023-01-04T06:32:17;8.43;;;4.90;;
47429;SDS011;33181;49.246;7.372;2023-01-04T06:34:42;10.23;;;4.90;;
47429;SDS011;33181;49.246;7.372;2023-01-04T06:37:08;11.30;;;5.10;;
47429;SDS011;33181;49.246;7.372;2023-01-04T06:39:34;9.20;;;4.40;;
47429;SDS011;33181;49.246;7.372;2023-01-04T06:42:01;9.70;;;4.33;;
47429;SDS011;33181;49.246;7.372;2023-01-04T06:44:28;12.70;;;5.00;;
47429;SDS011;33181;49.246;7.372;2023-01-04T06:46:54;7.37;;;4.27;;
47429;SDS011;33181;49.246;7.372;2023-01-04T06:49:19;8.93;;;4.70;;
47429;SDS011;33181;49.246;7.372;2023-01-04T06:51:45;8.60;;;5.10;;
47429;SDS011;33181;49.246;7.372;2023-01-04T06:54:11;9.10;;;4.13;;
47429;SDS011;33181;49.246;7.372;2023-01-04T06:56:37;6.60;;;3.83;;
47429;SDS011;33181;49.246;7.372;2023-01-04T06:59:04;7.50;;;3.77;;
47429;SDS011;33181;49.246;7.372;2023-01-04T07:01:31;8.00;;;4.23;;
47429;SDS011;33181;49.246;7.372;2023-01-04T07:03:56;8.70;;;3.90;;
47429;SDS011;33181;49.246;7.372;2023-01-04T07:06:22;6.17;;;3.77;;
47429;SDS011;33181;49.246;7.372;2023-01-04T07:08:48;5.80;;;3.70;;
47429;SDS011;33181;49.246;7.372;2023-01-04T07:11:14;7.70;;;4.40;;
47429;SDS011;33181;49.246;7.372;2023-01-04T07:13:39;6.97;;;4.27;;
47429;SDS011;33181;49.246;7.372;2023-01-04T07:16:05;5.60;;;3.90;;
47429;SDS011;33181;49.246;7.372;2023-01-04T07:18:31;5.63;;;4.10;;
47429;SDS011;33181;49.246;7.372;2023-01-04T07:20:56;5.53;;;3.73;;
47429;SDS011;33181;49.246;7.372;2023-01-04T07:23:22;6.93;;;3.90;;
47429;SDS011;33181;49.246;7.372;2023-01-04T07:25:48;6.87;;;4.00;;
47429;SDS011;33181;49.246;7.372;2023-01-04T07:28:13;9.13;;;3.57;;
47429;SDS011;33181;49.246;7.372;2023-01-04T07:31:03;5.67;;;3.87;;
47429;SDS011;33181;49.246;7.372;2023-01-04T07:33:31;6.00;;;3.90;;
47429;SDS011;33181;49.246;7.372;2023-01-04T07:36:00;8.53;;;4.33;;
47429;SDS011;33181;49.246;7.372;2023-01-04T07:38:28;6.23;;;3.97;;
47429;SDS011;33181;49.246;7.372;2023-01-04T07:40:56;7.07;;;4.40;;
47429;SDS011;33181;49.246;7.372;2023-01-04T07:43:22;6.33;;;4.10;;
47429;SDS011;33181;49.246;7.372;2023-01-04T07:45:48;8.00;;;4.33;;
47429;SDS011;33181;49.246;7.372;2023-01-04T07:48:13;6.27;;;4.07;;
47429;SDS011;33181;49.246;7.372;2023-01-04T07:50:39;9.23;;;4.13;;
47429;SDS011;33181;49.246;7.372;2023-01-04T07:53:05;9.00;;;4.97;;
47429;SDS011;33181;49.246;7.372;2023-01-04T07:55:30;7.10;;;4.43;;
47429;SDS011;33181;49.246;7.372;2023-01-04T07:57:56;10.10;;;4.80;;
47429;SDS011;33181;49.246;7.372;2023-01-04T08:00:22;6.47;;;4.23;;
47429;SDS011;33181;49.246;7.372;2023-01-04T08:02:48;6.47;;;4.20;;
47429;SDS011;33181;49.246;7.372;2023-01-04T08:05:14;7.40;;;4.20;;
47429;SDS011;33181;49.246;7.372;2023-01-04T08:07:39;7.03;;;4.63;;
47429;SDS011;33181;49.246;7.372;2023-01-04T08:10:05;6.77;;;4.53;;
47429;SDS011;33181;49.246;7.372;2023-01-04T08:12:32;6.33;;;4.20;;
47429;SDS011;33181;49.246;7.372;2023-01-04T08:14:57;6.97;;;4.30;;
47429;SDS011;33181;49.246;7.372;2023-01-04T08:17:23;6.07;;;4.20;;
47429;SDS011;33181;49.246;7.372;2023-01-04T08:19:49;7.13;;;4.40;;
47429;SDS011;33181;49.246;7.372;2023-01-04T08:22:14;8.17;;;4.77;;
47429;SDS011;33181;49.246;7.372;2023-01-04T08:24:40;6.87;;;4.37;;
47429;SDS011;33181;49.246;7.372;2023-01-04T08:27:06;7.67;;;4.10;;
47429;SDS011;33181;49.246;7.372;2023-01-04T08:29:32;6.90;;;4.73;;
47429;SDS011;33181;49.246;7.372;2023-01-04T08:31:58;6.40;;;4.80;;
47429;SDS011;33181;49.246;7.372;2023-01-04T08:34:23;8.47;;;4.20;;
47429;SDS011;33181;49.246;7.372;2023-01-04T08:36:49;7.30;;;4.47;;
47429;SDS011;33181;49.246;7.372;2023-01-04T08:39:17;7.20;;;4.90;;
47429;SDS011;33181;49.246;7.372;2023-01-04T08:41:43;8.23;;;4.70;;
47429;SDS011;33181;49.246;7.372;2023-01-04T08:44:19;8.33;;;4.90;;
47429;SDS011;33181;49.246;7.372;2023-01-04T08:46:46;7.30;;;4.43;;
47429;SDS011;33181;49.246;7.372;2023-01-04T08:49:13;7.67;;;5.07;;
47429;SDS011;33181;49.246;7.372;2023-01-04T08:51:38;9.00;;;5.07;;
47429;SDS011;33181;49.246;7.372;2023-01-04T08:54:05;9.17;;;5.67;;
47429;SDS011;33181;49.246;7.372;2023-01-04T08:56:31;8.33;;;5.00;;
47429;SDS011;33181;49.246;7.372;2023-01-04T08:58:57;8.10;;;4.80;;
47429;SDS011;33181;49.246;7.372;2023-01-04T09:01:24;9.20;;;5.20;;
47429;SDS011;33181;49.246;7.372;2023-01-04T09:03:49;11.17;;;4.50;;
47429;SDS011;33181;49.246;7.372;2023-01-04T09:06:15;7.33;;;4.17;;
47429;SDS011;33181;49.246;7.372;2023-01-04T09:08:41;8.53;;;4.70;;
47429;SDS011;33181;49.246;7.372;2023-01-04T09:11:18;6.70;;;4.10;;
47429;SDS011;33181;49.246;7.372;2023-01-04T09:13:46;17.70;;;8.13;;
47429;SDS011;33181;49.246;7.372;2023-01-04T09:16:14;9.00;;;4.73;;
47429;SDS011;33181;49.246;7.372;2023-01-04T09:18:42;7.70;;;4.63;;
47429;SDS011;33181;49.246;7.372;2023-01-04T09:21:10;12.63;;;4.70;;
47429;SDS011;33181;49.246;7.372;2023-01-04T09:23:39;9.20;;;5.17;;
47429;SDS011;33181;49.246;7.372;2023-01-04T09:26:07;6.80;;;4.60;;
47429;SDS011;33181;49.246;7.372;2023-01-04T09:28:42;5.00;;;3.90;;
47429;SDS011;33181;49.246;7.372;2023-01-04T09:31:10;6.60;;;4.20;;
47429;SDS011;33181;49.246;7.372;2023-01-04T09:33:42;6.17;;;4.40;;
47429;SDS011;33181;49.246;7.372;2023-01-04T09:36:10;7.10;;;3.90;;
47429;SDS011;33181;49.246;7.372;2023-01-04T09:38:39;6.90;;;4.00;;
47429;SDS011;33181;49.246;7.372;2023-01-04T09:43:57;6.10;;;4.37;;
47429;SDS011;33181;49.246;7.372;2023-01-04T09:46:36;8.43;;;4.53;;
47429;SDS011;33181;49.246;7.372;2023-01-04T09:52:19;7.53;;;4.70;;
47429;SDS011;33181;49.246;7.372;2023-01-04T09:55:08;5.30;;;3.80;;
47429;SDS011;33181;49.246;7.372;2023-01-04T09:58:01;5.43;;;3.80;;
47429;SDS011;33181;49.246;7.372;2023-01-04T10:00:45;5.60;;;4.10;;
47429;SDS011;33181;49.246;7.372;2023-01-04T10:03:22;6.07;;;4.07;;
47429;SDS011;33181;49.246;7.372;2023-01-04T10:05:54;6.30;;;4.20;;
47429;SDS011;33181;49.246;7.372;2023-01-04T10:08:20;5.23;;;3.90;;
47429;SDS011;33181;49.246;7.372;2023-01-04T10:11:00;6.03;;;4.10;;
47429;SDS011;33181;49.246;7.372;2023-01-04T10:19:29;8.37;;;5.03;;
47429;SDS011;33181;49.246;7.372;2023-01-04T10:22:19;5.07;;;4.10;;
47429;SDS011;33181;49.246;7.372;2023-01-04T10:27:46;5.53;;;4.13;;
47429;SDS011;33181;49.246;7.372;2023-01-04T10:33:12;8.33;;;4.30;;
47429;SDS011;33181;49.246;7.372;2023-01-04T10:36:16;6.70;;;4.23;;
47429;SDS011;33181;49.246;7.372;2023-01-04T10:38:59;7.13;;;4.10;;
47429;SDS011;33181;49.246;7.372;2023-01-04T10:41:36;6.90;;;4.30;;
47429;SDS011;33181;49.246;7.372;2023-01-04T10:47:30;7.77;;;4.47;;
47429;SDS011;33181;49.246;7.372;2023-01-04T10:53:13;6.03;;;4.60;;
47429;SDS011;33181;49.246;7.372;2023-01-04T10:55:51;8.40;;;5.13;;
47429;SDS011;33181;49.246;7.372;2023-01-04T10:58:43;5.80;;;4.60;;
47429;SDS011;33181;49.246;7.372;2023-01-04T11:01:50;7.23;;;4.90;;
47429;SDS011;33181;49.246;7.372;2023-01-04T11:04:32;7.90;;;4.93;;
47429;SDS011;33181;49.246;7.372;2023-01-04T11:07:06;10.03;;;5.53;;
47429;SDS011;33181;49.246;7.372;2023-01-04T11:12:26;6.93;;;5.30;;
47429;SDS011;33181;49.246;7.372;2023-01-04T11:14:52;7.50;;;5.57;;
47429;SDS011;33181;49.246;7.372;2023-01-04T11:17:20;7.00;;;5.43;;
47429;SDS011;33181;49.246;7.372;2023-01-04T11:19:48;11.40;;;6.63;;
47429;SDS011;33181;49.246;7.372;2023-01-04T11:22:17;12.73;;;5.90;;
47429;SDS011;33181;49.246;7.372;2023-01-04T11:25:02;9.57;;;6.50;;
47429;SDS011;33181;49.246;7.372;2023-01-04T11:27:34;8.63;;;6.87;;
47429;SDS011;33181;49.246;7.372;2023-01-04T11:30:15;10.43;;;7.17;;
47429;SDS011;33181;49.246;7.372;2023-01-04T11:32:54;10.57;;;6.20;;
47429;SDS011;33181;49.246;7.372;2023-01-04T11:35:40;9.63;;;7.17;;
47429;SDS011;33181;49.246;7.372;2023-01-04T11:38:19;11.03;;;6.77;;
47429;SDS011;33181;49.246;7.372;2023-01-04T11:40:54;8.80;;;6.53;;
47429;SDS011;33181;49.246;7.372;2023-01-04T11:43:37;8.77;;;6.40;;
47429;SDS011;33181;49.246;7.372;2023-01-04T11:48:42;8.60;;;6.80;;
47429;SDS011;33181;49.246;7.372;2023-01-04T11:53:58;9.20;;;6.33;;
47429;SDS011;33181;49.246;7.372;2023-01-04T11:56:30;9.67;;;6.90;;
47429;SDS011;33181;49.246;7.372;2023-01-04T11:59:05;9.23;;;6.60;;
47429;SDS011;33181;49.246;7.372;2023-01-04T12:01:42;9.43;;;6.87;;
47429;SDS011;33181;49.246;7.372;2023-01-04T12:04:11;10.70;;;7.40;;
47429;SDS011;33181;49.246;7.372;2023-01-04T12:09:15;10.87;;;6.70;;
47429;SDS011;33181;49.246;7.372;2023-01-04T12:11:45;9.40;;;6.80;;
47429;SDS011;33181;49.246;7.372;2023-01-04T12:14:24;8.93;;;6.37;;
47429;SDS011;33181;49.246;7.372;2023-01-04T12:17:01;11.93;;;6.50;;
47429;SDS011;33181;49.246;7.372;2023-01-04T12:19:35;8.50;;;7.00;;
47429;SDS011;33181;49.246;7.372;2023-01-04T12:22:04;7.83;;;6.80;;
47429;SDS011;33181;49.246;7.372;2023-01-04T12:25:06;9.57;;;6.50;;
47429;SDS011;33181;49.246;7.372;2023-01-04T12:27:55;9.67;;;6.60;;
47429;SDS011;33181;49.246;7.372;2023-01-04T12:47:48;9.73;;;6.50;;
47429;SDS011;33181;49.246;7.372;2023-01-04T12:50:16;10.83;;;6.47;;
47429;SDS011;33181;49.246;7.372;2023-01-04T12:52:50;8.70;;;6.80;;
47429;SDS011;33181;49.246;7.372;2023-01-04T12:57:56;9.17;;;7.20;;
47429;SDS011;33181;49.246;7.372;2023-01-04T13:05:39;8.73;;;6.40;;
47429;SDS011;33181;49.246;7.372;2023-01-04T13:08:24;9.90;;;6.20;;
47429;SDS011;33181;49.246;7.372;2023-01-04T13:10:52;9.27;;;6.50;;
47429;SDS011;33181;49.246;7.372;2023-01-04T13:16:27;10.50;;;6.30;;
47429;SDS011;33181;49.246;7.372;2023-01-04T13:19:18;13.10;;;5.90;;
47429;SDS011;33181;49.246;7.372;2023-01-04T13:21:47;8.87;;;5.20;;
47429;SDS011;33181;49.246;7.372;2023-01-04T13:27:19;6.97;;;5.00;;
47429;SDS011;33181;49.246;7.372;2023-01-04T13:29:47;6.97;;;5.10;;
47429;SDS011;33181;49.246;7.372;2023-01-04T13:32:28;6.53;;;4.63;;
47429;SDS011;33181;49.246;7.372;2023-01-04T13:35:02;8.17;;;5.43;;
47429;SDS011;33181;49.246;7.372;2023-01-04T13:37:39;10.23;;;6.47;;
47429;SDS011;33181;49.246;7.372;2023-01-04T13:40:21;7.37;;;4.83;;
47429;SDS011;33181;49.246;7.372;2023-01-04T13:42:53;7.60;;;5.63;;
47429;SDS011;33181;49.246;7.372;2023-01-04T13:46:15;7.97;;;5.03;;
47429;SDS011;33181;49.246;7.372;2023-01-04T13:48:45;10.27;;;5.57;;
47429;SDS011;33181;49.246;7.372;2023-01-04T13:51:23;8.00;;;5.47;;
47429;SDS011;33181;49.246;7.372;2023-01-04T13:53:59;7.47;;;5.33;;
47429;SDS011;33181;49.246;7.372;2023-01-04T13:56:27;12.27;;;5.70;;
47429;SDS011;33181;49.246;7.372;2023-01-04T13:58:55;8.37;;;6.30;;
47429;SDS011;33181;49.246;7.372;2023-01-04T14:01:28;10.63;;;6.87;;
47429;SDS011;33181;49.246;7.372;2023-01-04T14:04:06;8.00;;;5.90;;
47429;SDS011;33181;49.246;7.372;2023-01-04T14:06:43;8.27;;;5.60;;
47429;SDS011;33181;49.246;7.372;2023-01-04T14:09:13;7.33;;;5.90;;
47429;SDS011;33181;49.246;7.372;2023-01-04T14:11:45;7.10;;;5.60;;
47429;SDS011;33181;49.246;7.372;2023-01-04T14:22:40;13.87;;;5.83;;
47429;SDS011;33181;49.246;7.372;2023-01-04T14:36:11;9.50;;;7.00;;
47429;SDS011;33181;49.246;7.372;2023-01-04T14:41:55;12.33;;;8.60;;
47429;SDS011;33181;49.246;7.372;2023-01-04T14:44:22;9.87;;;6.93;;
47429;SDS011;33181;49.246;7.372;2023-01-04T14:46:55;7.70;;;6.70;;
47429;SDS011;33181;49.246;7.372;2023-01-04T14:49:24;9.83;;;6.80;;
47429;SDS011;33181;49.246;7.372;2023-01-04T14:51:57;8.10;;;5.80;;
47429;SDS011;33181;49.246;7.372;2023-01-04T14:54:25;13.03;;;6.30;;
47429;SDS011;33181;49.246;7.372;2023-01-04T14:56:53;7.27;;;5.60;;
47429;SDS011;33181;49.246;7.372;2023-01-04T14:59:20;7.70;;;5.10;;
47429;SDS011;33181;49.246;7.372;2023-01-04T15:01:47;7.80;;;5.47;;
47429;SDS011;33181;49.246;7.372;2023-01-04T15:04:15;7.47;;;5.70;;
47429;SDS011;33181;49.246;7.372;2023-01-04T15:07:22;7.57;;;5.60;;
47429;SDS011;33181;49.246;7.372;2023-01-04T15:10:17;6.97;;;5.00;;
47429;SDS011;33181;49.246;7.372;2023-01-04T15:12:50;6.30;;;5.20;;
47429;SDS011;33181;49.246;7.372;2023-01-04T15:15:16;7.77;;;5.33;;
47429;SDS011;33181;49.246;7.372;2023-01-04T15:17:42;7.30;;;5.20;;
47429;SDS011;33181;49.246;7.372;2023-01-04T15:20:08;10.10;;;5.70;;
47429;SDS011;33181;49.246;7.372;2023-01-04T15:22:34;7.83;;;5.63;;
47429;SDS011;33181;49.246;7.372;2023-01-04T15:25:00;9.50;;;5.83;;
47429;SDS011;33181;49.246;7.372;2023-01-04T15:27:25;9.30;;;5.90;;
47429;SDS011;33181;49.246;7.372;2023-01-04T15:29:51;8.30;;;5.70;;
47429;SDS011;33181;49.246;7.372;2023-01-04T15:32:17;7.63;;;6.07;;
47429;SDS011;33181;49.246;7.372;2023-01-04T15:34:42;9.93;;;5.87;;
47429;SDS011;33181;49.246;7.372;2023-01-04T15:37:08;8.27;;;5.37;;
47429;SDS011;33181;49.246;7.372;2023-01-04T15:39:34;7.03;;;4.93;;
47429;SDS011;33181;49.246;7.372;2023-01-04T15:42:00;7.73;;;5.70;;
47429;SDS011;33181;49.246;7.372;2023-01-04T15:44:44;8.40;;;5.80;;
47429;SDS011;33181;49.246;7.372;2023-01-04T15:47:09;10.30;;;5.60;;
47429;SDS011;33181;49.246;7.372;2023-01-04T15:49:35;7.23;;;5.10;;
47429;SDS011;33181;49.246;7.372;2023-01-04T15:52:01;8.40;;;5.40;;
47429;SDS011;33181;49.246;7.372;2023-01-04T15:54:27;6.27;;;5.57;;
47429;SDS011;33181;49.246;7.372;2023-01-04T15:56:53;7.43;;;4.97;;
47429;SDS011;33181;49.246;7.372;2023-01-04T15:59:19;9.27;;;5.57;;
47429;SDS011;33181;49.246;7.372;2023-01-04T16:01:45;9.37;;;5.57;;
47429;SDS011;33181;49.246;7.372;2023-01-04T16:04:11;5.83;;;4.87;;
47429;SDS011;33181;49.246;7.372;2023-01-04T16:06:37;6.13;;;4.87;;
47429;SDS011;33181;49.246;7.372;2023-01-04T16:09:04;8.47;;;5.63;;
47429;SDS011;33181;49.246;7.372;2023-01-04T16:11:30;5.63;;;4.47;;
47429;SDS011;33181;49.246;7.372;2023-01-04T16:13:56;8.23;;;5.13;;
47429;SDS011;33181;49.246;7.372;2023-01-04T16:16:23;5.80;;;5.10;;
47429;SDS011;33181;49.246;7.372;2023-01-04T16:18:54;5.77;;;4.73;;
47429;SDS011;33181;49.246;7.372;2023-01-04T16:21:22;7.30;;;6.03;;
47429;SDS011;33181;49.246;7.372;2023-01-04T16:23:57;6.43;;;4.87;;
47429;SDS011;33181;49.246;7.372;2023-01-04T16:26:24;6.77;;;5.73;;
47429;SDS011;33181;49.246;7.372;2023-01-04T16:28:50;6.73;;;5.20;;
47429;SDS011;33181;49.246;7.372;2023-01-04T16:31:18;6.60;;;5.10;;
47429;SDS011;33181;49.246;7.372;2023-01-04T16:33:45;7.00;;;5.40;;
47429;SDS011;33181;49.246;7.372;2023-01-04T16:36:12;6.53;;;4.80;;
47429;SDS011;33181;49.246;7.372;2023-01-04T16:38:41;6.63;;;5.80;;
47429;SDS011;33181;49.246;7.372;2023-01-04T16:41:12;7.63;;;5.80;;
47429;SDS011;33181;49.246;7.372;2023-01-04T16:43:41;6.63;;;5.50;;
47429;SDS011;33181;49.246;7.372;2023-01-04T16:46:18;6.60;;;5.90;;
47429;SDS011;33181;49.246;7.372;2023-01-04T16:48:53;6.87;;;5.90;;
47429;SDS011;33181;49.246;7.372;2023-01-04T16:51:22;7.47;;;6.40;;
47429;SDS011;33181;49.246;7.372;2023-01-04T16:53:50;6.80;;;5.40;;
47429;SDS011;33181;49.246;7.372;2023-01-04T16:56:17;9.70;;;5.40;;
47429;SDS011;33181;49.246;7.372;2023-01-04T16:58:45;7.17;;;5.37;;
47429;SDS011;33181;49.246;7.372;2023-01-04T17:03:43;6.50;;;5.80;;
47429;SDS011;33181;49.246;7.372;2023-01-04T17:06:15;6.10;;;5.20;;
47429;SDS011;33181;49.246;7.372;2023-01-04T17:08:52;5.90;;;5.30;;
47429;SDS011;33181;49.246;7.372;2023-01-04T17:11:22;7.20;;;6.10;;
47429;SDS011;33181;49.246;7.372;2023-01-04T17:13:50;6.30;;;5.43;;